This is the latest recevied weather packets stored in our database for station/object LRCK. If no packets are shown the sender has not sent any weather packets the latest 10 day(s).
| Time | Temp. | Humidity | Pressure | Rain* | Wind** | Luminosity | Snow |
|---|---|---|---|---|---|---|---|
| 1777331897 | 3.89° C | 75% | 1021 hPa | - | - | - | - |
| 1777330997 | 3.89° C | 75% | 1021 hPa | - | - | - | - |
| 1777330097 | 2.78° C | 81% | 1021 hPa | - | - | - | - |
| 1777329198 | 2.78° C | 81% | 1021 hPa | - | - | - | - |
| 1777328297 | 3.89° C | 75% | 1021 hPa | - | - | - | - |
| 1777327398 | 3.89° C | 75% | 1021 hPa | - | - | - | - |
| 1777326497 | 3.89° C | 75% | 1021 hPa | - | - | - | - |
| 1777325598 | 3.89° C | 75% | 1021 hPa | - | - | - | - |
| 1777324697 | 3.89° C | 75% | 1021 hPa | - | - | - | - |
| 1777323798 | 3.89° C | 75% | 1021 hPa | - | - | - | - |
| 1777322898 | 3.89° C | 75% | 1021 hPa | - | - | - | - |
| 1777321997 | 3.89° C | 75% | 1021 hPa | - | - | - | - |
| 1777321095 | 3.89° C | 75% | 1022 hPa | - | - | - | - |
| 1777320197 | 3.89° C | 75% | 1022 hPa | - | - | - | - |
| 1777319298 | 6.11° C | 66% | 1022 hPa | - | - | - | - |
| 1777318425 | 6.11° C | 66% | 1022 hPa | - | - | - | - |
| 1777317498 | 6.11° C | 71% | 1022 hPa | - | - | - | - |
| 1777316598 | 6.11° C | 71% | 1022 hPa | - | - | - | - |
| 1777315697 | 6.11° C | 71% | 1022 hPa | - | - | - | - |
| 1777314797 | 6.11° C | 71% | 1022 hPa | - | - | - | - |
| 1777313897 | 7.22° C | 66% | 1022 hPa | - | - | - | - |
| 1777312997 | 7.22° C | 66% | 1022 hPa | - | - | - | - |
| 1777312097 | 7.22° C | 66% | 1021 hPa | - | - | - | - |
| 1777311197 | 7.22° C | 66% | 1021 hPa | - | - | - | - |
| 1777310297 | 7.78° C | 62% | 1021 hPa | - | - | - | - |
* Rain since midnight (hover to see other rain measurements)
** Current wind speed in m/s (hover to see current wind gust speed)